sensor_id;sensor_type;location;lat;lon;timestamp;temperature;humidity
8557;DHT22;4316;53.840;10.762;2022-12-29T00:01:29;7.90;99.90
8557;DHT22;4316;53.840;10.762;2022-12-29T00:03:55;7.80;99.90
8557;DHT22;4316;53.840;10.762;2022-12-29T00:06:21;7.80;99.90
8557;DHT22;4316;53.840;10.762;2022-12-29T00:08:47;7.90;99.90
8557;DHT22;4316;53.840;10.762;2022-12-29T00:11:19;7.90;99.90
8557;DHT22;4316;53.840;10.762;2022-12-29T00:13:45;7.90;99.90
8557;DHT22;4316;53.840;10.762;2022-12-29T00:16:29;7.90;99.90
8557;DHT22;4316;53.840;10.762;2022-12-29T00:18:55;7.90;99.90
8557;DHT22;4316;53.840;10.762;2022-12-29T00:21:22;7.90;99.90
8557;DHT22;4316;53.840;10.762;2022-12-29T00:24:12;8.00;99.90
8557;DHT22;4316;53.840;10.762;2022-12-29T00:29:47;8.00;99.90
8557;DHT22;4316;53.840;10.762;2022-12-29T00:32:32;8.00;99.90
8557;DHT22;4316;53.840;10.762;2022-12-29T00:37:48;8.00;99.90
8557;DHT22;4316;53.840;10.762;2022-12-29T00:40:33;8.10;99.90
8557;DHT22;4316;53.840;10.762;2022-12-29T00:43:17;8.10;99.90
8557;DHT22;4316;53.840;10.762;2022-12-29T00:46:12;8.10;99.90
8557;DHT22;4316;53.840;10.762;2022-12-29T00:48:37;8.10;99.90
8557;DHT22;4316;53.840;10.762;2022-12-29T00:51:25;8.10;99.90
8557;DHT22;4316;53.840;10.762;2022-12-29T00:53:51;8.10;99.90
8557;DHT22;4316;53.840;10.762;2022-12-29T00:56:16;8.10;99.90
8557;DHT22;4316;53.840;10.762;2022-12-29T00:58:42;8.10;99.90
8557;DHT22;4316;53.840;10.762;2022-12-29T01:01:08;8.20;99.90
8557;DHT22;4316;53.840;10.762;2022-12-29T01:03:35;8.20;99.90
8557;DHT22;4316;53.840;10.762;2022-12-29T01:06:08;8.20;99.90
8557;DHT22;4316;53.840;10.762;2022-12-29T01:08:36;8.30;99.90
8557;DHT22;4316;53.840;10.762;2022-12-29T01:11:12;8.30;99.90
8557;DHT22;4316;53.840;10.762;2022-12-29T01:13:39;8.30;99.90
8557;DHT22;4316;53.840;10.762;2022-12-29T01:16:06;8.30;99.90
8557;DHT22;4316;53.840;10.762;2022-12-29T01:18:32;8.30;99.90
8557;DHT22;4316;53.840;10.762;2022-12-29T01:21:06;8.30;99.90
8557;DHT22;4316;53.840;10.762;2022-12-29T01:23:32;8.40;99.90
8557;DHT22;4316;53.840;10.762;2022-12-29T01:26:11;8.40;99.90
8557;DHT22;4316;53.840;10.762;2022-12-29T01:28:37;8.40;99.90
8557;DHT22;4316;53.840;10.762;2022-12-29T01:31:06;8.40;99.90
8557;DHT22;4316;53.840;10.762;2022-12-29T01:33:32;8.40;99.90
8557;DHT22;4316;53.840;10.762;2022-12-29T01:36:06;8.40;99.90
8557;DHT22;4316;53.840;10.762;2022-12-29T01:38:32;8.40;99.90
8557;DHT22;4316;53.840;10.762;2022-12-29T01:40:58;8.40;99.90
8557;DHT22;4316;53.840;10.762;2022-12-29T01:46:36;8.50;99.90
8557;DHT22;4316;53.840;10.762;2022-12-29T01:49:19;8.50;99.90
8557;DHT22;4316;53.840;10.762;2022-12-29T01:51:55;8.50;99.90
8557;DHT22;4316;53.840;10.762;2022-12-29T01:54:30;8.50;99.90
8557;DHT22;4316;53.840;10.762;2022-12-29T01:57:00;8.50;99.90
8557;DHT22;4316;53.840;10.762;2022-12-29T01:59:34;8.50;99.90
8557;DHT22;4316;53.840;10.762;2022-12-29T02:02:02;8.50;99.90
8557;DHT22;4316;53.840;10.762;2022-12-29T02:04:31;8.50;99.90
8557;DHT22;4316;53.840;10.762;2022-12-29T02:07:05;8.50;99.90
8557;DHT22;4316;53.840;10.762;2022-12-29T02:09:32;8.50;99.90
8557;DHT22;4316;53.840;10.762;2022-12-29T02:11:58;8.60;99.90
8557;DHT22;4316;53.840;10.762;2022-12-29T02:14:25;8.60;99.90
8557;DHT22;4316;53.840;10.762;2022-12-29T02:17:15;8.60;99.90
8557;DHT22;4316;53.840;10.762;2022-12-29T02:36:36;8.70;99.90
8557;DHT22;4316;53.840;10.762;2022-12-29T02:39:15;8.80;99.90
8557;DHT22;4316;53.840;10.762;2022-12-29T02:48:03;8.70;99.90
8557;DHT22;4316;53.840;10.762;2022-12-29T02:50:33;8.70;99.90
8557;DHT22;4316;53.840;10.762;2022-12-29T02:53:11;8.70;99.90
8557;DHT22;4316;53.840;10.762;2022-12-29T02:55:38;8.70;99.90
8557;DHT22;4316;53.840;10.762;2022-12-29T02:58:18;8.70;99.90
8557;DHT22;4316;53.840;10.762;2022-12-29T03:01:11;8.70;99.90
8557;DHT22;4316;53.840;10.762;2022-12-29T03:09:37;8.70;99.90
8557;DHT22;4316;53.840;10.762;2022-12-29T03:17:58;8.70;99.90
8557;DHT22;4316;53.840;10.762;2022-12-29T03:20:39;8.70;99.90
8557;DHT22;4316;53.840;10.762;2022-12-29T03:23:07;8.80;99.90
8557;DHT22;4316;53.840;10.762;2022-12-29T03:25:47;8.80;99.90
8557;DHT22;4316;53.840;10.762;2022-12-29T03:28:35;8.80;99.90
8557;DHT22;4316;53.840;10.762;2022-12-29T03:31:03;8.70;99.90
8557;DHT22;4316;53.840;10.762;2022-12-29T03:33:30;8.80;99.90
8557;DHT22;4316;53.840;10.762;2022-12-29T03:36:03;8.80;99.90
8557;DHT22;4316;53.840;10.762;2022-12-29T03:41:11;8.80;99.90
8557;DHT22;4316;53.840;10.762;2022-12-29T03:43:38;8.90;99.90
8557;DHT22;4316;53.840;10.762;2022-12-29T03:46:05;8.90;99.90
8557;DHT22;4316;53.840;10.762;2022-12-29T03:48:31;8.90;99.90
8557;DHT22;4316;53.840;10.762;2022-12-29T03:50:58;8.90;99.90
8557;DHT22;4316;53.840;10.762;2022-12-29T03:53:24;8.90;99.90
8557;DHT22;4316;53.840;10.762;2022-12-29T03:55:50;8.90;99.90
8557;DHT22;4316;53.840;10.762;2022-12-29T03:58:16;8.90;99.90
8557;DHT22;4316;53.840;10.762;2022-12-29T04:01:11;9.00;99.90
8557;DHT22;4316;53.840;10.762;2022-12-29T04:03:38;9.00;99.90
8557;DHT22;4316;53.840;10.762;2022-12-29T04:06:04;9.00;99.90
8557;DHT22;4316;53.840;10.762;2022-12-29T04:08:39;9.00;99.90
8557;DHT22;4316;53.840;10.762;2022-12-29T04:11:06;9.00;99.90
8557;DHT22;4316;53.840;10.762;2022-12-29T04:13:31;9.00;99.90
8557;DHT22;4316;53.840;10.762;2022-12-29T04:15:57;9.00;99.90
8557;DHT22;4316;53.840;10.762;2022-12-29T04:18:23;9.00;99.90
8557;DHT22;4316;53.840;10.762;2022-12-29T04:20:49;9.10;99.90
8557;DHT22;4316;53.840;10.762;2022-12-29T04:23:32;9.10;99.90
8557;DHT22;4316;53.840;10.762;2022-12-29T04:25:58;9.10;99.90
8557;DHT22;4316;53.840;10.762;2022-12-29T04:28:26;9.10;99.90
8557;DHT22;4316;53.840;10.762;2022-12-29T04:31:13;9.10;99.90
8557;DHT22;4316;53.840;10.762;2022-12-29T04:33:45;9.20;99.90
8557;DHT22;4316;53.840;10.762;2022-12-29T04:36:11;9.20;99.90
8557;DHT22;4316;53.840;10.762;2022-12-29T04:38:37;9.20;99.90
8557;DHT22;4316;53.840;10.762;2022-12-29T04:41:04;9.20;99.90
8557;DHT22;4316;53.840;10.762;2022-12-29T04:43:32;9.20;99.90
8557;DHT22;4316;53.840;10.762;2022-12-29T04:46:06;9.20;99.90
8557;DHT22;4316;53.840;10.762;2022-12-29T04:48:43;9.20;99.90
8557;DHT22;4316;53.840;10.762;2022-12-29T04:51:25;9.20;99.90
8557;DHT22;4316;53.840;10.762;2022-12-29T04:53:50;9.20;99.90
8557;DHT22;4316;53.840;10.762;2022-12-29T04:56:16;9.20;99.90
8557;DHT22;4316;53.840;10.762;2022-12-29T04:58:42;9.20;99.90
8557;DHT22;4316;53.840;10.762;2022-12-29T05:01:08;9.20;99.90
8557;DHT22;4316;53.840;10.762;2022-12-29T05:03:33;9.20;99.90
8557;DHT22;4316;53.840;10.762;2022-12-29T05:06:00;9.20;99.90
8557;DHT22;4316;53.840;10.762;2022-12-29T05:08:26;9.20;99.90
8557;DHT22;4316;53.840;10.762;2022-12-29T05:10:53;9.20;99.90
8557;DHT22;4316;53.840;10.762;2022-12-29T05:13:19;9.20;99.90
8557;DHT22;4316;53.840;10.762;2022-12-29T05:15:50;9.20;99.90
8557;DHT22;4316;53.840;10.762;2022-12-29T05:18:17;9.20;99.90
8557;DHT22;4316;53.840;10.762;2022-12-29T05:20:43;9.30;99.90
8557;DHT22;4316;53.840;10.762;2022-12-29T05:23:09;9.20;99.90
8557;DHT22;4316;53.840;10.762;2022-12-29T05:25:35;9.30;99.90
8557;DHT22;4316;53.840;10.762;2022-12-29T05:28:18;9.30;99.90
8557;DHT22;4316;53.840;10.762;2022-12-29T05:30:56;9.30;99.90
8557;DHT22;4316;53.840;10.762;2022-12-29T05:33:22;9.20;99.90
8557;DHT22;4316;53.840;10.762;2022-12-29T05:35:49;9.20;99.90
8557;DHT22;4316;53.840;10.762;2022-12-29T05:38:17;9.20;99.90
8557;DHT22;4316;53.840;10.762;2022-12-29T05:40:44;9.20;99.90
8557;DHT22;4316;53.840;10.762;2022-12-29T05:43:28;9.20;99.90
8557;DHT22;4316;53.840;10.762;2022-12-29T05:46:33;9.20;99.90
8557;DHT22;4316;53.840;10.762;2022-12-29T05:49:10;9.20;99.90
8557;DHT22;4316;53.840;10.762;2022-12-29T05:52:02;9.20;99.90
8557;DHT22;4316;53.840;10.762;2022-12-29T05:54:28;9.20;99.90
8557;DHT22;4316;53.840;10.762;2022-12-29T05:56:56;9.20;99.90
8557;DHT22;4316;53.840;10.762;2022-12-29T05:59:27;9.20;99.90
8557;DHT22;4316;53.840;10.762;2022-12-29T06:01:54;9.20;99.90
8557;DHT22;4316;53.840;10.762;2022-12-29T06:04:19;9.20;99.90
8557;DHT22;4316;53.840;10.762;2022-12-29T06:06:46;9.20;99.90
8557;DHT22;4316;53.840;10.762;2022-12-29T06:09:20;9.20;99.90
8557;DHT22;4316;53.840;10.762;2022-12-29T06:11:46;9.30;99.90
8557;DHT22;4316;53.840;10.762;2022-12-29T06:14:12;9.20;99.90
8557;DHT22;4316;53.840;10.762;2022-12-29T06:16:37;9.30;99.90
8557;DHT22;4316;53.840;10.762;2022-12-29T06:19:07;9.30;99.90
8557;DHT22;4316;53.840;10.762;2022-12-29T06:21:34;9.30;99.90
8557;DHT22;4316;53.840;10.762;2022-12-29T06:24:00;9.30;99.90
8557;DHT22;4316;53.840;10.762;2022-12-29T06:26:26;9.30;99.90
8557;DHT22;4316;53.840;10.762;2022-12-29T06:28:52;9.40;99.90
8557;DHT22;4316;53.840;10.762;2022-12-29T06:31:18;9.50;99.90
8557;DHT22;4316;53.840;10.762;2022-12-29T06:33:44;9.50;99.90
8557;DHT22;4316;53.840;10.762;2022-12-29T06:36:10;9.50;99.90
8557;DHT22;4316;53.840;10.762;2022-12-29T06:38:36;9.40;99.90
8557;DHT22;4316;53.840;10.762;2022-12-29T06:41:02;9.50;99.90
8557;DHT22;4316;53.840;10.762;2022-12-29T06:43:42;9.50;99.90
8557;DHT22;4316;53.840;10.762;2022-12-29T06:46:19;9.50;99.90
8557;DHT22;4316;53.840;10.762;2022-12-29T06:48:45;9.50;99.90
8557;DHT22;4316;53.840;10.762;2022-12-29T06:51:11;9.50;99.90
8557;DHT22;4316;53.840;10.762;2022-12-29T06:53:37;9.50;99.90
8557;DHT22;4316;53.840;10.762;2022-12-29T06:56:03;9.50;99.90
8557;DHT22;4316;53.840;10.762;2022-12-29T06:58:29;9.50;99.90
8557;DHT22;4316;53.840;10.762;2022-12-29T07:00:55;9.50;99.90
8557;DHT22;4316;53.840;10.762;2022-12-29T07:03:21;9.60;99.90
8557;DHT22;4316;53.840;10.762;2022-12-29T07:05:46;9.60;99.90
8557;DHT22;4316;53.840;10.762;2022-12-29T07:08:12;9.60;99.90
8557;DHT22;4316;53.840;10.762;2022-12-29T07:10:38;9.60;99.90
8557;DHT22;4316;53.840;10.762;2022-12-29T07:13:04;9.60;99.90
8557;DHT22;4316;53.840;10.762;2022-12-29T07:15:29;9.60;99.90
8557;DHT22;4316;53.840;10.762;2022-12-29T07:17:55;9.50;99.90
8557;DHT22;4316;53.840;10.762;2022-12-29T07:20:21;9.50;99.90
8557;DHT22;4316;53.840;10.762;2022-12-29T07:22:47;9.50;99.90
8557;DHT22;4316;53.840;10.762;2022-12-29T07:25:12;9.50;99.90
8557;DHT22;4316;53.840;10.762;2022-12-29T07:27:39;9.50;99.90
8557;DHT22;4316;53.840;10.762;2022-12-29T07:30:05;9.60;99.90
8557;DHT22;4316;53.840;10.762;2022-12-29T07:32:34;9.60;99.90
8557;DHT22;4316;53.840;10.762;2022-12-29T07:35:00;9.60;99.90
8557;DHT22;4316;53.840;10.762;2022-12-29T07:37:26;9.60;99.90
8557;DHT22;4316;53.840;10.762;2022-12-29T07:39:53;9.60;99.90
8557;DHT22;4316;53.840;10.762;2022-12-29T07:42:19;9.50;99.90
8557;DHT22;4316;53.840;10.762;2022-12-29T07:44:50;9.50;99.90
8557;DHT22;4316;53.840;10.762;2022-12-29T07:47:20;9.40;99.90
8557;DHT22;4316;53.840;10.762;2022-12-29T07:49:46;9.50;99.90
8557;DHT22;4316;53.840;10.762;2022-12-29T07:52:11;9.50;99.90
8557;DHT22;4316;53.840;10.762;2022-12-29T07:54:37;9.50;99.90
8557;DHT22;4316;53.840;10.762;2022-12-29T07:57:04;9.40;99.90
8557;DHT22;4316;53.840;10.762;2022-12-29T07:59:30;9.40;99.90
8557;DHT22;4316;53.840;10.762;2022-12-29T08:01:56;9.40;99.90
8557;DHT22;4316;53.840;10.762;2022-12-29T08:04:22;9.50;99.90
8557;DHT22;4316;53.840;10.762;2022-12-29T08:06:47;9.50;99.90
8557;DHT22;4316;53.840;10.762;2022-12-29T08:09:13;9.50;99.90
8557;DHT22;4316;53.840;10.762;2022-12-29T08:11:39;9.50;99.90
8557;DHT22;4316;53.840;10.762;2022-12-29T08:14:06;9.50;99.90
8557;DHT22;4316;53.840;10.762;2022-12-29T08:16:32;9.40;99.90
8557;DHT22;4316;53.840;10.762;2022-12-29T08:18:58;9.40;99.90
8557;DHT22;4316;53.840;10.762;2022-12-29T08:21:24;9.40;99.90
8557;DHT22;4316;53.840;10.762;2022-12-29T08:23:50;9.40;99.90
8557;DHT22;4316;53.840;10.762;2022-12-29T08:26:16;9.40;99.90
8557;DHT22;4316;53.840;10.762;2022-12-29T08:28:42;9.40;99.90
8557;DHT22;4316;53.840;10.762;2022-12-29T08:31:10;9.30;99.90
8557;DHT22;4316;53.840;10.762;2022-12-29T08:33:36;9.30;99.90
8557;DHT22;4316;53.840;10.762;2022-12-29T08:36:04;9.30;99.90
8557;DHT22;4316;53.840;10.762;2022-12-29T08:38:33;9.30;99.90
8557;DHT22;4316;53.840;10.762;2022-12-29T08:40:59;9.30;99.90
8557;DHT22;4316;53.840;10.762;2022-12-29T08:43:26;9.30;99.90
8557;DHT22;4316;53.840;10.762;2022-12-29T08:45:52;9.30;99.90
8557;DHT22;4316;53.840;10.762;2022-12-29T08:48:18;9.30;99.90
8557;DHT22;4316;53.840;10.762;2022-12-29T08:50:46;9.30;99.90
8557;DHT22;4316;53.840;10.762;2022-12-29T08:53:12;9.40;99.90
8557;DHT22;4316;53.840;10.762;2022-12-29T08:55:38;9.40;99.90
8557;DHT22;4316;53.840;10.762;2022-12-29T08:58:04;9.40;99.90
8557;DHT22;4316;53.840;10.762;2022-12-29T09:00:29;9.40;99.90
8557;DHT22;4316;53.840;10.762;2022-12-29T09:02:56;9.50;99.90
8557;DHT22;4316;53.840;10.762;2022-12-29T09:05:22;9.50;99.90
8557;DHT22;4316;53.840;10.762;2022-12-29T09:07:48;9.50;99.90
8557;DHT22;4316;53.840;10.762;2022-12-29T09:10:14;9.60;99.90
8557;DHT22;4316;53.840;10.762;2022-12-29T09:12:39;9.80;99.90
8557;DHT22;4316;53.840;10.762;2022-12-29T09:15:06;9.80;99.90
8557;DHT22;4316;53.840;10.762;2022-12-29T09:17:32;9.90;99.90
8557;DHT22;4316;53.840;10.762;2022-12-29T09:20:18;10.10;99.90
8557;DHT22;4316;53.840;10.762;2022-12-29T09:22:44;10.00;99.90
8557;DHT22;4316;53.840;10.762;2022-12-29T09:25:13;9.90;99.90
8557;DHT22;4316;53.840;10.762;2022-12-29T09:27:39;9.90;99.90
8557;DHT22;4316;53.840;10.762;2022-12-29T09:30:08;9.80;99.90
8557;DHT22;4316;53.840;10.762;2022-12-29T09:32:35;9.80;99.90
8557;DHT22;4316;53.840;10.762;2022-12-29T09:35:01;9.80;99.90
8557;DHT22;4316;53.840;10.762;2022-12-29T09:37:27;9.90;99.90
8557;DHT22;4316;53.840;10.762;2022-12-29T09:39:53;9.80;99.90
8557;DHT22;4316;53.840;10.762;2022-12-29T09:47:16;10.10;99.90
8557;DHT22;4316;53.840;10.762;2022-12-29T09:49:56;10.10;99.90
8557;DHT22;4316;53.840;10.762;2022-12-29T09:52:29;10.10;99.90
8557;DHT22;4316;53.840;10.762;2022-12-29T09:57:44;10.20;99.90
8557;DHT22;4316;53.840;10.762;2022-12-29T10:00:20;10.10;99.90
8557;DHT22;4316;53.840;10.762;2022-12-29T10:10:37;10.10;99.90
8557;DHT22;4316;53.840;10.762;2022-12-29T10:15:57;10.10;99.90
8557;DHT22;4316;53.840;10.762;2022-12-29T10:23:52;10.20;99.90
8557;DHT22;4316;53.840;10.762;2022-12-29T10:26:21;10.20;99.90
8557;DHT22;4316;53.840;10.762;2022-12-29T10:28:51;10.20;99.90
8557;DHT22;4316;53.840;10.762;2022-12-29T10:31:22;10.20;99.90
8557;DHT22;4316;53.840;10.762;2022-12-29T10:33:53;10.30;99.90
8557;DHT22;4316;53.840;10.762;2022-12-29T10:36:56;10.30;99.90
8557;DHT22;4316;53.840;10.762;2022-12-29T10:41:53;10.40;99.90
8557;DHT22;4316;53.840;10.762;2022-12-29T10:44:21;10.60;99.90
8557;DHT22;4316;53.840;10.762;2022-12-29T10:46:56;10.60;99.90
8557;DHT22;4316;53.840;10.762;2022-12-29T10:49:26;10.60;99.90
8557;DHT22;4316;53.840;10.762;2022-12-29T10:51:55;10.40;99.90
8557;DHT22;4316;53.840;10.762;2022-12-29T10:57:33;11.10;99.90
8557;DHT22;4316;53.840;10.762;2022-12-29T11:00:00;10.90;99.90
8557;DHT22;4316;53.840;10.762;2022-12-29T11:02:58;11.20;99.90
8557;DHT22;4316;53.840;10.762;2022-12-29T11:08:08;11.50;99.90
8557;DHT22;4316;53.840;10.762;2022-12-29T11:10:36;11.60;99.90
8557;DHT22;4316;53.840;10.762;2022-12-29T11:15:46;11.50;99.90
8557;DHT22;4316;53.840;10.762;2022-12-29T11:20:56;12.40;99.90
8557;DHT22;4316;53.840;10.762;2022-12-29T11:23:39;12.20;99.90
8557;DHT22;4316;53.840;10.762;2022-12-29T11:26:14;11.60;99.90
8557;DHT22;4316;53.840;10.762;2022-12-29T11:28:44;11.10;99.90
8557;DHT22;4316;53.840;10.762;2022-12-29T11:31:12;10.80;99.90
8557;DHT22;4316;53.840;10.762;2022-12-29T11:33:40;10.70;99.90
8557;DHT22;4316;53.840;10.762;2022-12-29T11:36:16;10.70;99.90
8557;DHT22;4316;53.840;10.762;2022-12-29T11:38:48;10.60;99.90
8557;DHT22;4316;53.840;10.762;2022-12-29T11:41:21;10.60;99.90
8557;DHT22;4316;53.840;10.762;2022-12-29T11:43:48;10.60;99.90
8557;DHT22;4316;53.840;10.762;2022-12-29T11:46:18;10.50;99.90
8557;DHT22;4316;53.840;10.762;2022-12-29T11:48:46;10.50;99.90
8557;DHT22;4316;53.840;10.762;2022-12-29T11:51:20;10.50;99.90
8557;DHT22;4316;53.840;10.762;2022-12-29T11:53:54;10.60;99.90
8557;DHT22;4316;53.840;10.762;2022-12-29T11:56:33;10.70;99.90
8557;DHT22;4316;53.840;10.762;2022-12-29T12:04:56;10.70;99.90
8557;DHT22;4316;53.840;10.762;2022-12-29T12:07:37;10.60;99.90
8557;DHT22;4316;53.840;10.762;2022-12-29T12:10:04;10.60;99.90
8557;DHT22;4316;53.840;10.762;2022-12-29T12:12:47;10.60;99.90
8557;DHT22;4316;53.840;10.762;2022-12-29T12:15:22;10.60;99.90
8557;DHT22;4316;53.840;10.762;2022-12-29T12:20:41;10.60;99.90
8557;DHT22;4316;53.840;10.762;2022-12-29T12:29:20;10.60;99.90
8557;DHT22;4316;53.840;10.762;2022-12-29T12:32:27;10.60;99.90
8557;DHT22;4316;53.840;10.762;2022-12-29T12:34:50;10.60;99.90
8557;DHT22;4316;53.840;10.762;2022-12-29T12:37:32;10.60;99.90
8557;DHT22;4316;53.840;10.762;2022-12-29T12:53:39;10.40;99.90
8557;DHT22;4316;53.840;10.762;2022-12-29T13:10:34;10.40;99.90
8557;DHT22;4316;53.840;10.762;2022-12-29T13:16:21;10.40;99.90
8557;DHT22;4316;53.840;10.762;2022-12-29T13:19:14;10.50;99.90
8557;DHT22;4316;53.840;10.762;2022-12-29T13:30:57;10.50;99.90
8557;DHT22;4316;53.840;10.762;2022-12-29T13:35:38;10.50;99.90
8557;DHT22;4316;53.840;10.762;2022-12-29T13:38:20;10.50;99.90
8557;DHT22;4316;53.840;10.762;2022-12-29T13:40:50;10.50;99.90
8557;DHT22;4316;53.840;10.762;2022-12-29T13:43:18;10.50;99.90
8557;DHT22;4316;53.840;10.762;2022-12-29T13:45:45;10.50;99.90
8557;DHT22;4316;53.840;10.762;2022-12-29T13:48:25;10.50;99.90
8557;DHT22;4316;53.840;10.762;2022-12-29T13:50:57;10.50;99.90
8557;DHT22;4316;53.840;10.762;2022-12-29T13:56:14;10.50;99.90
8557;DHT22;4316;53.840;10.762;2022-12-29T14:04:24;10.50;99.90
8557;DHT22;4316;53.840;10.762;2022-12-29T14:07:04;10.50;99.90
8557;DHT22;4316;53.840;10.762;2022-12-29T14:09:45;10.50;99.90
8557;DHT22;4316;53.840;10.762;2022-12-29T14:15:20;10.40;99.90
8557;DHT22;4316;53.840;10.762;2022-12-29T14:18:11;10.30;99.90
8557;DHT22;4316;53.840;10.762;2022-12-29T14:21:25;10.30;99.90
8557;DHT22;4316;53.840;10.762;2022-12-29T14:23:41;10.20;99.90
8557;DHT22;4316;53.840;10.762;2022-12-29T14:31:02;9.90;99.90
8557;DHT22;4316;53.840;10.762;2022-12-29T14:33:33;9.80;99.90
8557;DHT22;4316;53.840;10.762;2022-12-29T14:36:21;9.80;99.90
8557;DHT22;4316;53.840;10.762;2022-12-29T14:38:48;9.80;99.90
8557;DHT22;4316;53.840;10.762;2022-12-29T14:41:40;9.70;99.90
8557;DHT22;4316;53.840;10.762;2022-12-29T14:46:57;9.60;99.90
8557;DHT22;4316;53.840;10.762;2022-12-29T14:49:32;9.60;99.90
8557;DHT22;4316;53.840;10.762;2022-12-29T14:52:21;9.60;99.90
8557;DHT22;4316;53.840;10.762;2022-12-29T14:54:57;9.50;99.90
8557;DHT22;4316;53.840;10.762;2022-12-29T14:57:29;9.50;99.90
8557;DHT22;4316;53.840;10.762;2022-12-29T15:00:22;9.40;99.90
8557;DHT22;4316;53.840;10.762;2022-12-29T15:03:02;9.30;99.90
8557;DHT22;4316;53.840;10.762;2022-12-29T15:05:36;9.30;99.90
8557;DHT22;4316;53.840;10.762;2022-12-29T15:08:06;9.20;99.90
8557;DHT22;4316;53.840;10.762;2022-12-29T15:10:45;9.10;99.90
8557;DHT22;4316;53.840;10.762;2022-12-29T15:13:22;9.10;99.90
8557;DHT22;4316;53.840;10.762;2022-12-29T15:15:48;9.10;99.90
8557;DHT22;4316;53.840;10.762;2022-12-29T15:18:21;9.10;99.90
8557;DHT22;4316;53.840;10.762;2022-12-29T15:20:55;9.00;99.90
8557;DHT22;4316;53.840;10.762;2022-12-29T15:23:22;9.00;99.90
8557;DHT22;4316;53.840;10.762;2022-12-29T15:25:55;9.00;99.90
8557;DHT22;4316;53.840;10.762;2022-12-29T15:28:21;9.00;99.90
8557;DHT22;4316;53.840;10.762;2022-12-29T15:30:55;9.00;99.90
8557;DHT22;4316;53.840;10.762;2022-12-29T15:33:23;9.00;99.90
8557;DHT22;4316;53.840;10.762;2022-12-29T15:35:53;8.90;99.90
8557;DHT22;4316;53.840;10.762;2022-12-29T15:38:28;8.90;99.90
8557;DHT22;4316;53.840;10.762;2022-12-29T15:41:02;8.90;99.90
8557;DHT22;4316;53.840;10.762;2022-12-29T15:43:45;8.90;99.90
8557;DHT22;4316;53.840;10.762;2022-12-29T15:46:14;8.80;99.90
8557;DHT22;4316;53.840;10.762;2022-12-29T15:48:40;8.80;99.90
8557;DHT22;4316;53.840;10.762;2022-12-29T15:51:25;8.80;99.90
8557;DHT22;4316;53.840;10.762;2022-12-29T15:53:54;8.80;99.90
8557;DHT22;4316;53.840;10.762;2022-12-29T15:56:20;8.80;99.90
8557;DHT22;4316;53.840;10.762;2022-12-29T15:58:48;8.80;99.90
8557;DHT22;4316;53.840;10.762;2022-12-29T16:01:32;8.80;99.90
8557;DHT22;4316;53.840;10.762;2022-12-29T16:04:00;8.70;99.90
8557;DHT22;4316;53.840;10.762;2022-12-29T16:11:46;8.70;99.90
8557;DHT22;4316;53.840;10.762;2022-12-29T16:14:17;8.70;99.90
8557;DHT22;4316;53.840;10.762;2022-12-29T16:16:44;8.70;99.90
8557;DHT22;4316;53.840;10.762;2022-12-29T16:19:25;8.60;99.90
8557;DHT22;4316;53.840;10.762;2022-12-29T16:21:54;8.60;99.90
8557;DHT22;4316;53.840;10.762;2022-12-29T16:24:24;8.60;99.90
8557;DHT22;4316;53.840;10.762;2022-12-29T16:27:00;8.60;99.90
8557;DHT22;4316;53.840;10.762;2022-12-29T16:29:29;8.60;99.90
8557;DHT22;4316;53.840;10.762;2022-12-29T16:31:58;8.60;99.90
8557;DHT22;4316;53.840;10.762;2022-12-29T16:37:30;8.50;99.90
8557;DHT22;4316;53.840;10.762;2022-12-29T16:39:56;8.50;99.90
8557;DHT22;4316;53.840;10.762;2022-12-29T16:50:34;8.40;99.90
8557;DHT22;4316;53.840;10.762;2022-12-29T16:53:01;8.40;99.90
8557;DHT22;4316;53.840;10.762;2022-12-29T16:55:29;8.40;99.90
8557;DHT22;4316;53.840;10.762;2022-12-29T16:57:55;8.30;99.90
8557;DHT22;4316;53.840;10.762;2022-12-29T17:00:27;8.40;99.90
8557;DHT22;4316;53.840;10.762;2022-12-29T17:02:57;8.40;99.90
8557;DHT22;4316;53.840;10.762;2022-12-29T17:05:23;8.30;99.90
8557;DHT22;4316;53.840;10.762;2022-12-29T17:07:49;8.30;99.90
8557;DHT22;4316;53.840;10.762;2022-12-29T17:10:16;8.20;99.90
8557;DHT22;4316;53.840;10.762;2022-12-29T17:12:43;8.30;99.90
8557;DHT22;4316;53.840;10.762;2022-12-29T17:17:47;8.30;99.90
8557;DHT22;4316;53.840;10.762;2022-12-29T17:20:21;8.20;99.90
8557;DHT22;4316;53.840;10.762;2022-12-29T17:22:48;8.20;99.90
8557;DHT22;4316;53.840;10.762;2022-12-29T17:25:16;8.20;99.90
8557;DHT22;4316;53.840;10.762;2022-12-29T17:27:48;8.10;99.90
8557;DHT22;4316;53.840;10.762;2022-12-29T17:30:17;8.10;99.90
8557;DHT22;4316;53.840;10.762;2022-12-29T17:32:51;8.10;99.90
8557;DHT22;4316;53.840;10.762;2022-12-29T17:35:19;8.00;99.90
8557;DHT22;4316;53.840;10.762;2022-12-29T17:37:47;8.00;99.90
8557;DHT22;4316;53.840;10.762;2022-12-29T17:40:36;8.00;99.90
8557;DHT22;4316;53.840;10.762;2022-12-29T17:43:02;7.90;99.90
8557;DHT22;4316;53.840;10.762;2022-12-29T17:45:29;8.00;99.90
8557;DHT22;4316;53.840;10.762;2022-12-29T17:47:57;8.00;99.90
8557;DHT22;4316;53.840;10.762;2022-12-29T17:50:27;7.90;99.90
8557;DHT22;4316;53.840;10.762;2022-12-29T17:53:03;7.90;99.90
8557;DHT22;4316;53.840;10.762;2022-12-29T17:55:29;7.90;99.90
8557;DHT22;4316;53.840;10.762;2022-12-29T17:57:55;7.90;99.90
8557;DHT22;4316;53.840;10.762;2022-12-29T18:00:23;7.90;99.90
8557;DHT22;4316;53.840;10.762;2022-12-29T18:02:52;7.90;99.90
8557;DHT22;4316;53.840;10.762;2022-12-29T18:05:21;7.80;99.90
8557;DHT22;4316;53.840;10.762;2022-12-29T18:07:50;7.80;99.90
8557;DHT22;4316;53.840;10.762;2022-12-29T18:10:16;7.80;99.90
8557;DHT22;4316;53.840;10.762;2022-12-29T18:12:47;7.80;99.90
8557;DHT22;4316;53.840;10.762;2022-12-29T18:15:24;7.70;99.90
8557;DHT22;4316;53.840;10.762;2022-12-29T18:18:20;7.80;99.90
8557;DHT22;4316;53.840;10.762;2022-12-29T18:20:47;7.70;99.90
8557;DHT22;4316;53.840;10.762;2022-12-29T18:23:22;7.70;99.90
8557;DHT22;4316;53.840;10.762;2022-12-29T18:25:55;7.70;99.90
8557;DHT22;4316;53.840;10.762;2022-12-29T18:28:24;7.70;99.90
8557;DHT22;4316;53.840;10.762;2022-12-29T18:30:50;7.60;99.90
8557;DHT22;4316;53.840;10.762;2022-12-29T18:33:18;7.60;99.90
8557;DHT22;4316;53.840;10.762;2022-12-29T18:35:48;7.60;99.90
8557;DHT22;4316;53.840;10.762;2022-12-29T18:38:16;7.60;99.90
8557;DHT22;4316;53.840;10.762;2022-12-29T18:40:42;7.60;99.90
8557;DHT22;4316;53.840;10.762;2022-12-29T18:43:14;7.60;99.90
8557;DHT22;4316;53.840;10.762;2022-12-29T18:45:40;7.60;99.90
8557;DHT22;4316;53.840;10.762;2022-12-29T18:48:07;7.70;99.90
8557;DHT22;4316;53.840;10.762;2022-12-29T18:50:33;7.70;99.90
8557;DHT22;4316;53.840;10.762;2022-12-29T18:52:59;7.70;99.90
8557;DHT22;4316;53.840;10.762;2022-12-29T18:55:27;7.70;99.90
8557;DHT22;4316;53.840;10.762;2022-12-29T18:57:53;7.70;99.90
8557;DHT22;4316;53.840;10.762;2022-12-29T19:00:20;7.80;99.90
8557;DHT22;4316;53.840;10.762;2022-12-29T19:02:48;7.80;99.90
8557;DHT22;4316;53.840;10.762;2022-12-29T19:05:26;7.80;99.90
8557;DHT22;4316;53.840;10.762;2022-12-29T19:07:52;7.80;99.90
8557;DHT22;4316;53.840;10.762;2022-12-29T19:10:20;7.80;99.90
8557;DHT22;4316;53.840;10.762;2022-12-29T19:12:47;7.80;99.90
8557;DHT22;4316;53.840;10.762;2022-12-29T19:15:23;7.80;99.90
8557;DHT22;4316;53.840;10.762;2022-12-29T19:17:49;7.80;99.90
8557;DHT22;4316;53.840;10.762;2022-12-29T19:20:52;7.80;99.90
8557;DHT22;4316;53.840;10.762;2022-12-29T19:23:20;7.80;99.90